Time;durP1;ratioP1;P1;durP2;ratioP2;P2;SDS_P1;SDS_P2;PMS_P1;PMS_P2;Temp;Humidity;BMP_temperature;BMP_pressure;BME280_temperature;BME280_humidity;BME280_pressure;Samples;Min_cycle;Max_cycle;Signal;HPM_P1;HPM_P2
2021/09/15 00:00:15;;;;;;;8.50;4.90;;;16.60;76.60;;;;;;5035143;28;20033;-71
2021/09/15 00:02:40;;;;;;;7.93;4.85;;;16.50;75.20;;;;;;5036427;28;20030;-71
2021/09/15 00:05:07;;;;;;;8.63;4.63;;;16.50;73.50;;;;;;5036447;28;20512;-71
2021/09/15 00:07:33;;;;;;;7.70;4.88;;;16.40;72.80;;;;;;5036619;28;20175;-71
2021/09/15 00:10:00;;;;;;;9.25;4.53;;;16.40;71.60;;;;;;5035030;28;20067;-72
2021/09/15 00:12:25;;;;;;;7.85;4.60;;;16.40;70.80;;;;;;5036247;28;20030;-71
2021/09/15 00:14:51;;;;;;;8.75;5.18;;;16.30;70.40;;;;;;5036153;28;20075;-73
2021/09/15 00:17:18;;;;;;;8.68;4.70;;;16.30;69.80;;;;;;5035103;28;20029;-71
2021/09/15 00:19:43;;;;;;;7.63;4.80;;;16.20;69.40;;;;;;5036552;28;21605;-72
2021/09/15 00:22:09;;;;;;;8.35;5.10;;;16.20;69.40;;;;;;5055435;28;20036;-71
2021/09/15 00:24:35;;;;;;;10.88;5.43;;;16.20;69.80;;;;;;5054794;28;20529;-72
2021/09/15 00:27:00;;;;;;;8.77;5.22;;;16.10;70.00;;;;;;5056147;28;20028;-72
2021/09/15 00:29:26;;;;;;;9.77;5.40;;;16.10;70.40;;;;;;5055597;28;20463;-72
2021/09/15 00:31:52;;;;;;;7.75;5.32;;;16.10;70.50;;;;;;5054815;28;20051;-72
2021/09/15 00:34:17;;;;;;;8.57;5.18;;;16.00;70.60;;;;;;5053150;28;20432;-75
2021/09/15 00:36:43;;;;;;;11.50;5.53;;;16.00;70.80;;;;;;5054913;28;20033;-72
2021/09/15 00:39:09;;;;;;;9.75;5.50;;;16.00;70.90;;;;;;5055933;28;20025;-72
2021/09/15 00:41:35;;;;;;;9.57;5.40;;;15.90;71.20;;;;;;5055654;28;20025;-72
2021/09/15 00:44:07;;;;;;;9.57;5.80;;;15.90;71.20;;;;;;5054431;28;20025;-71
2021/09/15 00:46:34;;;;;;;9.57;5.88;;;15.90;71.40;;;;;;5054534;28;20094;-71
2021/09/15 00:49:00;;;;;;;9.52;5.82;;;15.90;71.80;;;;;;5054436;28;20052;-72
2021/09/15 00:51:27;;;;;;;10.02;5.80;;;15.90;72.30;;;;;;5055622;28;20387;-72
2021/09/15 00:53:52;;;;;;;9.95;5.60;;;15.90;72.00;;;;;;5055517;28;20646;-72
2021/09/15 00:56:19;;;;;;;9.63;5.88;;;15.80;72.50;;;;;;5054167;28;20126;-71
2021/09/15 00:58:44;;;;;;;10.18;5.75;;;15.80;72.60;;;;;;5054298;28;20029;-72
2021/09/15 01:01:10;;;;;;;9.25;5.13;;;15.80;72.40;;;;;;5055577;28;20424;-72
2021/09/15 01:03:37;;;;;;;8.57;5.13;;;15.80;71.80;;;;;;5054275;28;20099;-72
2021/09/15 01:06:03;;;;;;;10.02;5.05;;;15.70;71.10;;;;;;5055285;28;20064;-72
2021/09/15 01:08:30;;;;;;;10.63;5.32;;;15.70;71.10;;;;;;5055122;28;20468;-72
2021/09/15 01:10:56;;;;;;;9.52;4.20;;;15.60;71.10;;;;;;5055130;28;20032;-72
2021/09/15 01:13:22;;;;;;;6.25;3.75;;;15.50;69.00;;;;;;5055307;28;20444;-71
2021/09/15 01:15:48;;;;;;;7.32;3.85;;;15.50;67.40;;;;;;5051174;28;20025;-72
2021/09/15 01:18:17;;;;;;;6.45;3.65;;;15.50;66.70;;;;;;5035308;28;20039;-71
2021/09/15 01:20:43;;;;;;;5.38;3.40;;;15.50;67.10;;;;;;5035235;28;20419;-71
2021/09/15 01:23:09;;;;;;;4.72;3.20;;;15.50;66.20;;;;;;5035213;28;20083;-71
2021/09/15 01:25:35;;;;;;;4.95;3.25;;;15.50;65.90;;;;;;5033537;28;20025;-73
2021/09/15 01:28:01;;;;;;;6.32;3.05;;;15.50;65.20;;;;;;5035246;28;20053;-72
2021/09/15 01:30:27;;;;;;;7.22;2.80;;;15.40;64.90;;;;;;5034827;28;20033;-72
2021/09/15 01:32:53;;;;;;;6.57;3.30;;;15.40;64.70;;;;;;5033863;28;20029;-72
2021/09/15 01:35:19;;;;;;;8.73;3.25;;;15.40;64.70;;;;;;5034703;28;20368;-72
2021/09/15 01:37:44;;;;;;;8.55;3.38;;;15.40;64.80;;;;;;5034557;28;20088;-72
2021/09/15 01:40:11;;;;;;;6.75;2.97;;;15.30;65.00;;;;;;5034704;28;20025;-73
2021/09/15 01:42:37;;;;;;;8.95;3.35;;;15.40;65.50;;;;;;5032143;28;20052;-72
2021/09/15 01:45:05;;;;;;;6.00;3.10;;;15.40;65.80;;;;;;5033815;28;20122;-72
2021/09/15 01:47:31;;;;;;;8.27;3.67;;;15.40;65.50;;;;;;5034646;28;20385;-72
2021/09/15 01:49:57;;;;;;;6.38;3.20;;;15.40;65.50;;;;;;5034743;28;20026;-72
2021/09/15 01:52:22;;;;;;;10.32;3.30;;;15.40;66.30;;;;;;5034371;28;20025;-72
2021/09/15 01:54:48;;;;;;;8.20;3.13;;;15.30;66.20;;;;;;5032996;28;20033;-73
2021/09/15 01:57:15;;;;;;;5.45;2.90;;;15.30;66.00;;;;;;5033263;28;20034;-69
2021/09/15 01:59:40;;;;;;;6.22;3.60;;;15.20;65.70;;;;;;5034506;28;20096;-68
2021/09/15 02:02:10;;;;;;;8.05;5.18;;;15.20;66.00;;;;;;5034128;28;20108;-70
2021/09/15 02:04:37;;;;;;;5.50;3.45;;;15.20;66.10;;;;;;5032500;28;20128;-71
2021/09/15 02:07:02;;;;;;;7.68;3.47;;;15.10;65.70;;;;;;5033523;28;20113;-70
2021/09/15 02:09:28;;;;;;;6.82;3.50;;;15.10;65.60;;;;;;5031978;28;20129;-70
2021/09/15 02:11:54;;;;;;;5.80;3.55;;;15.00;65.80;;;;;;5033015;28;20515;-70
2021/09/15 02:14:20;;;;;;;6.82;3.35;;;15.00;66.00;;;;;;5035528;28;20033;-69
2021/09/15 02:16:46;;;;;;;5.47;3.03;;;15.00;66.00;;;;;;5032196;28;20034;-69
2021/09/15 02:19:12;;;;;;;7.32;3.58;;;15.00;65.80;;;;;;5032148;28;20124;-70
2021/09/15 02:21:38;;;;;;;5.90;3.53;;;14.90;65.90;;;;;;5031424;28;20451;-69
2021/09/15 02:24:04;;;;;;;6.15;3.25;;;14.90;66.00;;;;;;5031711;28;20434;-69
2021/09/15 02:26:31;;;;;;;7.13;3.55;;;14.90;66.60;;;;;;5033241;28;20368;-70
2021/09/15 02:28:58;;;;;;;6.93;3.30;;;14.90;65.80;;;;;;5044400;28;20090;-70
2021/09/15 02:31:23;;;;;;;7.50;3.60;;;14.80;66.30;;;;;;5051883;28;20121;-70
2021/09/15 02:33:49;;;;;;;8.90;3.80;;;14.80;65.90;;;;;;5051657;28;20064;-69
2021/09/15 02:36:15;;;;;;;7.90;4.40;;;14.80;65.50;;;;;;5051629;28;20029;-69
2021/09/15 02:38:41;;;;;;;7.45;4.05;;;14.80;65.50;;;;;;5051641;28;20029;-69
2021/09/15 02:41:07;;;;;;;8.10;3.70;;;14.70;65.70;;;;;;5051576;28;20025;-69
2021/09/15 02:43:33;;;;;;;8.88;3.67;;;14.70;65.50;;;;;;5052846;28;20032;-69
2021/09/15 02:45:59;;;;;;;6.20;3.60;;;14.70;65.80;;;;;;5052710;28;20025;-70
2021/09/15 02:48:25;;;;;;;9.52;3.97;;;14.60;65.90;;;;;;5051355;28;20464;-70
2021/09/15 02:50:50;;;;;;;8.13;4.00;;;14.60;65.70;;;;;;5051512;28;20032;-70
2021/09/15 02:53:17;;;;;;;8.18;4.18;;;14.60;65.60;;;;;;5051254;28;20089;-70
2021/09/15 02:55:43;;;;;;;7.03;3.63;;;14.60;65.30;;;;;;5052795;28;20029;-70
2021/09/15 02:58:09;;;;;;;6.57;3.67;;;14.60;65.20;;;;;;5052868;28;20482;-70
2021/09/15 03:00:34;;;;;;;7.93;3.72;;;14.60;65.30;;;;;;5051579;28;20021;-69
2021/09/15 03:03:02;;;;;;;5.47;2.83;;;14.50;64.70;;;;;;5051399;28;20028;-70
2021/09/15 03:05:28;;;;;;;6.53;3.50;;;14.50;64.30;;;;;;5003921;28;1399989;-69
2021/09/15 03:07:53;;;;;;;7.93;3.60;;;14.50;63.70;;;;;;5053189;28;20033;-70
2021/09/15 03:10:19;;;;;;;6.30;3.13;;;14.50;63.80;;;;;;5053239;28;20029;-70
2021/09/15 03:12:45;;;;;;;6.57;3.28;;;14.50;63.60;;;;;;5044729;28;20022;-70
2021/09/15 03:15:11;;;;;;;6.22;3.33;;;14.40;64.10;;;;;;5033325;28;20033;-73
2021/09/15 03:17:37;;;;;;;5.53;3.15;;;14.40;63.60;;;;;;5033330;28;20030;-68
2021/09/15 03:20:04;;;;;;;6.18;3.15;;;14.40;63.10;;;;;;5032041;28;20172;-70
2021/09/15 03:22:30;;;;;;;6.43;3.10;;;14.40;63.20;;;;;;5031764;28;20037;-69
2021/09/15 03:24:55;;;;;;;8.88;3.42;;;14.30;63.30;;;;;;5031981;28;20388;-69
2021/09/15 03:27:21;;;;;;;11.18;3.45;;;14.30;63.20;;;;;;5032599;28;20112;-70
2021/09/15 03:29:47;;;;;;;5.45;2.97;;;14.30;63.20;;;;;;5051866;28;20087;-69
2021/09/15 03:32:12;;;;;;;5.10;3.08;;;14.30;63.60;;;;;;5052407;28;20032;-69
2021/09/15 03:34:38;;;;;;;5.05;3.00;;;14.30;63.80;;;;;;5051767;28;20123;-69
2021/09/15 03:37:04;;;;;;;6.28;3.13;;;14.40;63.90;;;;;;5053109;28;20025;-70
2021/09/15 03:39:30;;;;;;;5.22;3.13;;;14.40;64.80;;;;;;5053445;28;20078;-70
2021/09/15 03:41:55;;;;;;;8.65;2.90;;;14.60;64.90;;;;;;5049002;28;20022;-70
2021/09/15 03:44:21;;;;;;;6.38;2.90;;;14.70;64.80;;;;;;5031847;28;20037;-70
2021/09/15 03:46:47;;;;;;;9.13;4.28;;;15.00;64.90;;;;;;5031585;28;20104;-67
2021/09/15 03:49:12;;;;;;;6.78;3.80;;;15.30;65.00;;;;;;5032978;28;20037;-70
2021/09/15 03:51:38;;;;;;;6.22;4.00;;;15.50;64.20;;;;;;5036859;28;20021;-72
2021/09/15 03:54:04;;;;;;;7.68;3.80;;;15.80;63.90;;;;;;5051835;28;20040;-70
2021/09/15 03:56:29;;;;;;;7.60;4.03;;;16.10;63.20;;;;;;5050958;28;20108;-72
2021/09/15 03:58:55;;;;;;;6.72;3.45;;;16.30;62.60;;;;;;5045012;28;20028;-69
2021/09/15 04:01:21;;;;;;;7.78;3.42;;;16.60;62.20;;;;;;5040041;28;20513;-70
2021/09/15 04:03:46;;;;;;;7.90;4.00;;;17.00;61.60;;;;;;5062511;28;20394;-71
2021/09/15 04:06:12;;;;;;;8.13;3.55;;;17.40;60.80;;;;;;5054753;28;20057;-72
2021/09/15 04:08:38;;;;;;;10.45;3.10;;;17.70;59.70;;;;;;5063468;28;20024;-73
2021/09/15 04:11:03;;;;;;;5.78;3.20;;;18.10;59.70;;;;;;5052865;28;20135;-70
2021/09/15 04:13:29;;;;;;;5.30;3.05;;;18.40;58.70;;;;;;5042432;28;20037;-71
2021/09/15 04:15:55;;;;;;;7.97;3.35;;;18.70;58.30;;;;;;5053407;28;20515;-71
2021/09/15 04:18:21;;;;;;;13.02;3.30;;;19.10;57.50;;;;;;5045696;28;20057;-70
2021/09/15 04:20:47;;;;;;;9.23;3.70;;;19.40;57.00;;;;;;5054164;28;20037;-70
2021/09/15 04:23:18;;;;;;;10.23;3.13;;;19.70;56.40;;;;;;5041962;28;20032;-70
2021/09/15 04:33:37;;;;;;;7.97;3.90;;;20.60;54.30;;;;;;5067408;28;20463;-71
2021/09/15 04:36:03;;;;;;;8.88;3.80;;;20.80;53.50;;;;;;5038675;28;20032;-71
2021/09/15 04:38:29;;;;;;;7.93;3.90;;;20.90;53.40;;;;;;5060313;28;20037;-72
2021/09/15 04:40:55;;;;;;;8.38;4.15;;;21.10;53.20;;;;;;5055507;28;20029;-74
2021/09/15 04:43:20;;;;;;;7.28;3.72;;;21.40;52.90;;;;;;5042219;28;20083;-74
2021/09/15 04:45:46;;;;;;;6.53;3.45;;;21.70;52.20;;;;;;5050307;28;20038;-72
2021/09/15 04:48:12;;;;;;;6.55;3.75;;;22.00;51.80;;;;;;5049898;28;20033;-73
2021/09/15 04:50:37;;;;;;;7.45;3.80;;;22.10;51.10;;;;;;5039757;28;20444;-74
2021/09/15 04:53:03;;;;;;;8.85;3.70;;;22.40;50.60;;;;;;5069554;28;20440;-72
2021/09/15 04:55:31;;;;;;;9.35;3.30;;;22.60;50.10;;;;;;5068417;28;20068;-70
2021/09/15 04:57:57;;;;;;;7.63;3.42;;;22.80;49.50;;;;;;5054122;28;20518;-69
2021/09/15 05:00:23;;;;;;;7.15;3.53;;;23.00;49.00;;;;;;5055467;28;20029;-71
2021/09/15 05:02:49;;;;;;;8.52;4.00;;;23.20;48.50;;;;;;5055242;28;20025;-69
2021/09/15 05:05:14;;;;;;;11.32;3.58;;;23.50;48.40;;;;;;5041387;28;20053;-69
2021/09/15 05:07:40;;;;;;;7.45;3.53;;;23.90;47.70;;;;;;5041991;28;20093;-70
2021/09/15 05:10:06;;;;;;;9.48;3.70;;;24.00;47.30;;;;;;5051235;28;20030;-69
2021/09/15 05:12:32;;;;;;;8.73;3.45;;;24.20;46.90;;;;;;5039917;28;20056;-70
2021/09/15 05:14:58;;;;;;;7.13;3.20;;;24.50;46.60;;;;;;5053528;28;20420;-70
2021/09/15 05:17:25;;;;;;;8.73;3.70;;;24.70;46.10;;;;;;5040282;28;20078;-70
2021/09/15 05:19:50;;;;;;;8.73;3.53;;;25.00;45.70;;;;;;5052340;28;20047;-73
2021/09/15 05:22:16;;;;;;;7.65;3.10;;;25.30;45.40;;;;;;5054539;28;20396;-71
2021/09/15 05:24:42;;;;;;;5.82;2.78;;;25.50;44.40;;;;;;5038916;28;20045;-80
2021/09/15 05:27:07;;;;;;;7.07;2.97;;;25.50;43.80;;;;;;5034920;28;20061;-70
2021/09/15 05:29:33;;;;;;;5.53;2.95;;;25.50;43.70;;;;;;5033697;28;20032;-71
2021/09/15 05:31:59;;;;;;;6.85;2.60;;;25.80;43.60;;;;;;5033867;28;20025;-79
2021/09/15 05:34:24;;;;;;;4.57;2.50;;;25.90;43.20;;;;;;5039912;28;20028;-73
2021/09/15 05:36:50;;;;;;;6.03;2.40;;;26.00;42.50;;;;;;5059633;28;20497;-71
2021/09/15 05:39:16;;;;;;;8.27;2.70;;;26.10;42.30;;;;;;5069363;28;20029;-72
2021/09/15 05:41:42;;;;;;;3.80;2.03;;;26.30;42.20;;;;;;5034653;28;20388;-71
2021/09/15 05:44:07;;;;;;;3.38;1.67;;;26.40;41.80;;;;;;5042445;28;20047;-71
2021/09/15 05:46:33;;;;;;;4.47;2.30;;;26.50;41.00;;;;;;5074894;28;20036;-70
2021/09/15 05:48:59;;;;;;;5.47;2.00;;;26.60;40.70;;;;;;5042803;28;20131;-70
2021/09/15 05:51:24;;;;;;;4.60;2.10;;;26.60;40.70;;;;;;5036798;28;20024;-70
2021/09/15 05:53:50;;;;;;;7.90;2.17;;;26.60;40.50;;;;;;5041351;28;20402;-70
2021/09/15 05:56:16;;;;;;;3.38;1.70;;;26.70;40.50;;;;;;5074147;28;20052;-70
2021/09/15 05:58:42;;;;;;;5.53;2.10;;;26.80;40.00;;;;;;5073960;28;20027;-69
2021/09/15 06:01:07;;;;;;;4.93;1.70;;;27.10;39.90;;;;;;5072941;28;20031;-70
2021/09/15 06:03:33;;;;;;;3.47;1.75;;;27.10;39.40;;;;;;5074105;28;20032;-70
2021/09/15 06:05:59;;;;;;;3.92;2.03;;;27.20;39.50;;;;;;5056263;28;20052;-69
2021/09/15 06:08:25;;;;;;;4.63;1.83;;;27.50;39.50;;;;;;5069415;28;20039;-70
2021/09/15 06:10:50;;;;;;;4.43;2.08;;;27.60;39.00;;;;;;5039825;28;20068;-71
2021/09/15 06:13:16;;;;;;;5.72;1.98;;;27.70;39.20;;;;;;5057797;28;20395;-71
2021/09/15 06:15:42;;;;;;;3.67;1.73;;;27.90;38.50;;;;;;5059042;28;20025;-71
2021/09/15 06:18:10;;;;;;;4.70;1.60;;;27.80;38.10;;;;;;5047892;28;20032;-71
2021/09/15 06:20:37;;;;;;;3.85;1.65;;;27.90;37.70;;;;;;5049596;28;20487;-69
2021/09/15 06:23:04;;;;;;;4.28;1.70;;;28.00;38.40;;;;;;5053012;28;20045;-71
2021/09/15 06:25:30;;;;;;;4.07;1.77;;;28.10;37.30;;;;;;5051926;28;20067;-70
2021/09/15 06:27:56;;;;;;;4.18;1.80;;;28.20;37.30;;;;;;5051705;28;20385;-70
2021/09/15 06:30:22;;;;;;;4.13;1.70;;;28.30;37.20;;;;;;5053873;28;20104;-70
2021/09/15 06:32:48;;;;;;;2.88;1.60;;;28.50;37.40;;;;;;5052577;28;20025;-70
2021/09/15 06:35:14;;;;;;;4.28;1.58;;;28.60;36.70;;;;;;5053538;28;20029;-70
2021/09/15 06:37:41;;;;;;;3.20;1.42;;;28.70;36.10;;;;;;5053380;28;20100;-70
2021/09/15 06:40:07;;;;;;;3.90;1.80;;;28.90;36.00;;;;;;5053362;28;20025;-71
2021/09/15 06:42:33;;;;;;;4.05;1.70;;;29.00;35.80;;;;;;5052180;28;20025;-70
2021/09/15 06:44:58;;;;;;;4.18;1.70;;;29.10;35.90;;;;;;5053144;28;20114;-70
2021/09/15 06:47:24;;;;;;;7.28;1.70;;;29.10;35.60;;;;;;5052321;28;20029;-68
2021/09/15 06:49:50;;;;;;;4.57;1.67;;;29.10;35.70;;;;;;5051050;28;20037;-72
2021/09/15 06:52:16;;;;;;;7.63;1.70;;;29.20;35.80;;;;;;5053250;28;20031;-70
2021/09/15 06:54:44;;;;;;;4.60;1.58;;;29.40;35.80;;;;;;5051978;28;20163;-70
2021/09/15 06:57:10;;;;;;;5.28;1.45;;;29.50;35.70;;;;;;5053683;28;20039;-68
2021/09/15 06:59:36;;;;;;;5.22;1.67;;;29.70;35.70;;;;;;5053595;28;20056;-70
2021/09/15 07:02:02;;;;;;;2.80;1.50;;;29.80;34.70;;;;;;5052516;28;20122;-68
2021/09/15 07:04:28;;;;;;;3.13;1.25;;;29.90;34.30;;;;;;5051388;28;20122;-67
2021/09/15 07:06:53;;;;;;;2.78;1.60;;;30.10;33.70;;;;;;5053893;28;20033;-70
2021/09/15 07:09:19;;;;;;;4.85;1.73;;;30.20;33.50;;;;;;5053216;28;20104;-70
2021/09/15 07:11:45;;;;;;;3.90;1.50;;;30.40;33.70;;;;;;5052395;28;20379;-70
2021/09/15 07:14:10;;;;;;;5.82;1.70;;;30.40;33.20;;;;;;5053434;28;20111;-71
2021/09/15 07:16:36;;;;;;;4.57;1.85;;;30.30;32.70;;;;;;5053103;28;20029;-70
2021/09/15 07:19:02;;;;;;;6.68;2.22;;;30.30;33.10;;;;;;5053060;28;20534;-67
2021/09/15 07:21:28;;;;;;;4.85;1.98;;;30.60;33.10;;;;;;5053228;28;20039;-70
2021/09/15 07:23:53;;;;;;;6.93;4.63;;;30.60;32.80;;;;;;5053227;28;20036;-70
2021/09/15 07:26:19;;;;;;;3.42;1.70;;;30.60;32.50;;;;;;5051693;28;20029;-69
2021/09/15 07:28:45;;;;;;;4.00;1.50;;;30.50;31.90;;;;;;5052082;28;20465;-69
2021/09/15 07:31:11;;;;;;;4.57;1.90;;;30.60;32.50;;;;;;5053112;28;20414;-70
2021/09/15 07:33:36;;;;;;;4.63;2.00;;;30.70;32.20;;;;;;5053008;28;20107;-70
2021/09/15 07:36:04;;;;;;;3.80;1.85;;;30.60;32.20;;;;;;5053111;28;20036;-70
2021/09/15 07:38:30;;;;;;;3.15;1.63;;;30.60;33.00;;;;;;5051660;28;20037;-70
2021/09/15 07:40:56;;;;;;;4.05;1.50;;;30.70;31.90;;;;;;5056456;28;20029;-69
2021/09/15 07:43:22;;;;;;;6.28;1.80;;;30.80;31.20;;;;;;5056917;28;20095;-70
2021/09/15 07:45:48;;;;;;;5.53;1.67;;;30.80;31.00;;;;;;5056731;28;20424;-70
2021/09/15 07:48:14;;;;;;;5.22;1.95;;;30.90;32.00;;;;;;5055777;28;20029;-70
2021/09/15 07:50:39;;;;;;;5.45;1.98;;;31.20;32.00;;;;;;5056806;28;20490;-70
2021/09/15 07:53:05;;;;;;;7.50;1.90;;;31.40;31.90;;;;;;5056222;28;20056;-70
2021/09/15 07:55:31;;;;;;;5.90;1.83;;;31.40;31.60;;;;;;5056811;28;20029;-70
2021/09/15 07:57:56;;;;;;;5.35;2.10;;;31.40;31.90;;;;;;5056373;28;20096;-70
2021/09/15 08:00:22;;;;;;;6.22;2.20;;;31.60;31.80;;;;;;5056593;28;20402;-70
2021/09/15 08:02:48;;;;;;;5.97;2.17;;;31.80;31.50;;;;;;5055199;28;20479;-70
2021/09/15 08:05:15;;;;;;;5.40;2.17;;;32.10;31.70;;;;;;5056657;28;20094;-70
2021/09/15 08:07:41;;;;;;;6.70;2.10;;;32.30;31.30;;;;;;5056503;28;20037;-70
2021/09/15 08:10:07;;;;;;;6.25;2.10;;;32.40;30.70;;;;;;5056269;28;20032;-70
2021/09/15 08:12:33;;;;;;;6.28;2.33;;;32.30;30.80;;;;;;5056145;28;20570;-69
2021/09/15 08:14:59;;;;;;;3.95;1.85;;;32.50;30.80;;;;;;5056633;28;20115;-70
2021/09/15 08:17:24;;;;;;;5.47;2.00;;;32.60;30.90;;;;;;5056176;28;20025;-69
2021/09/15 08:19:50;;;;;;;7.10;2.33;;;32.60;30.80;;;;;;5056084;28;20353;-70
2021/09/15 08:22:16;;;;;;;5.53;2.00;;;32.70;30.40;;;;;;5056516;28;20032;-70
2021/09/15 08:24:42;;;;;;;5.65;1.80;;;32.40;30.00;;;;;;5056525;28;20041;-70
2021/09/15 08:27:08;;;;;;;4.45;1.77;;;32.20;30.00;;;;;;5056438;28;20116;-70
2021/09/15 08:29:35;;;;;;;5.55;1.90;;;32.20;30.50;;;;;;5056017;28;20111;-70
2021/09/15 08:32:00;;;;;;;3.70;1.60;;;32.30;30.50;;;;;;5054944;28;20398;-70
2021/09/15 08:34:26;;;;;;;5.32;1.50;;;32.30;30.20;;;;;;5054828;28;20032;-70
2021/09/15 08:36:52;;;;;;;3.72;1.80;;;32.30;30.00;;;;;;5055915;28;20025;-69
2021/09/15 08:39:18;;;;;;;4.82;1.60;;;31.90;29.70;;;;;;5055905;28;20419;-70
2021/09/15 08:41:46;;;;;;;3.35;1.45;;;31.90;30.40;;;;;;5055785;28;20025;-70
2021/09/15 08:44:12;;;;;;;6.35;1.85;;;32.20;30.60;;;;;;5054504;28;20040;-69
2021/09/15 08:46:38;;;;;;;4.65;1.95;;;32.40;30.50;;;;;;5055611;28;20021;-70
2021/09/15 08:49:05;;;;;;;4.28;1.50;;;32.70;30.30;;;;;;5055742;28;20472;-70
2021/09/15 08:51:32;;;;;;;15.98;2.90;;;32.80;30.30;;;;;;5055563;28;20099;-70
2021/09/15 08:53:58;;;;;;;7.07;1.90;;;33.00;30.20;;;;;;5055777;28;20029;-70
2021/09/15 08:56:24;;;;;;;9.75;1.95;;;33.10;30.20;;;;;;5055553;28;20031;-70
2021/09/15 08:58:49;;;;;;;8.00;1.70;;;33.20;30.20;;;;;;5055627;28;20032;-72
2021/09/15 09:01:21;;;;;;;6.30;1.60;;;33.20;29.90;;;;;;5054341;28;20029;-70
2021/09/15 09:03:52;;;;;;;4.78;1.65;;;33.20;29.90;;;;;;5055424;28;20359;-70
2021/09/15 09:06:23;;;;;;;4.72;1.70;;;33.30;30.00;;;;;;5055795;28;20132;-70
2021/09/15 09:08:54;;;;;;;6.15;2.08;;;33.20;29.90;;;;;;5055324;28;20029;-70
2021/09/15 09:11:23;;;;;;;5.47;1.75;;;33.30;30.00;;;;;;5054291;28;20175;-70
2021/09/15 09:13:50;;;;;;;9.23;3.97;;;33.30;29.90;;;;;;5054106;28;20033;-70
2021/09/15 09:16:19;;;;;;;4.80;1.75;;;33.40;29.90;;;;;;5055246;28;20082;-70
2021/09/15 09:18:56;;;;;;;6.22;1.65;;;33.20;29.80;;;;;;5054803;28;20112;-70
2021/09/15 09:21:28;;;;;;;3.25;1.75;;;33.20;30.00;;;;;;5054963;28;20029;-70
2021/09/15 09:23:58;;;;;;;3.22;1.65;;;33.20;30.00;;;;;;5054968;28;20399;-70
2021/09/15 09:26:46;;;;;;;6.22;1.75;;;33.10;29.90;;;;;;5054907;28;20075;-70
2021/09/15 09:29:23;;;;;;;3.50;1.63;;;33.10;30.20;;;;;;5055001;28;20078;-69
2021/09/15 09:32:09;;;;;;;3.90;1.50;;;33.00;30.00;;;;;;5055337;28;20024;-70
2021/09/15 09:34:47;;;;;;;3.58;1.60;;;33.10;30.20;;;;;;5053677;28;20032;-69
2021/09/15 09:37:19;;;;;;;9.75;2.20;;;33.30;30.10;;;;;;5053314;28;20445;-70
2021/09/15 09:39:57;;;;;;;7.45;1.92;;;33.30;30.20;;;;;;5054275;28;20025;-70
2021/09/15 09:42:22;;;;;;;5.00;1.80;;;33.20;30.30;;;;;;5054667;28;20029;-70
2021/09/15 09:44:52;;;;;;;4.20;1.60;;;33.20;30.40;;;;;;5054419;28;20037;-70
2021/09/15 09:47:20;;;;;;;3.20;1.50;;;33.40;30.50;;;;;;5054361;28;20028;-70
2021/09/15 09:50:07;;;;;;;5.75;2.00;;;33.50;30.30;;;;;;5053036;28;20021;-70
2021/09/15 09:53:00;;;;;;;5.63;1.83;;;33.50;30.10;;;;;;5053328;28;20021;-69
2021/09/15 09:55:35;;;;;;;3.45;1.67;;;33.40;30.00;;;;;;5050290;28;20036;-70
2021/09/15 09:58:03;;;;;;;4.70;1.60;;;33.20;30.00;;;;;;5052960;28;20036;-70
2021/09/15 10:00:29;;;;;;;4.80;1.52;;;33.10;30.00;;;;;;5054183;28;20025;-70
2021/09/15 10:02:57;;;;;;;4.90;1.70;;;33.10;30.10;;;;;;5052790;28;20091;-71
2021/09/15 10:05:23;;;;;;;5.22;1.70;;;33.40;30.10;;;;;;5053793;28;20202;-70
2021/09/15 10:07:49;;;;;;;3.55;1.63;;;33.50;30.20;;;;;;5052853;28;20506;-70
2021/09/15 10:10:17;;;;;;;5.28;1.85;;;33.70;30.30;;;;;;5054316;28;20371;-70
2021/09/15 10:12:45;;;;;;;4.15;1.42;;;33.70;30.30;;;;;;5052610;28;20031;-70
2021/09/15 10:15:12;;;;;;;3.30;1.63;;;33.70;30.00;;;;;;5053830;28;20356;-70
2021/09/15 10:17:40;;;;;;;5.45;1.60;;;33.60;30.00;;;;;;5052730;28;20115;-70
2021/09/15 10:20:08;;;;;;;3.13;1.45;;;33.70;30.10;;;;;;5054448;28;20025;-70
2021/09/15 10:22:37;;;;;;;6.05;1.60;;;33.40;29.70;;;;;;5054003;28;20064;-69
2021/09/15 10:25:07;;;;;;;4.43;1.83;;;33.30;29.80;;;;;;5053920;28;20021;-70
2021/09/15 10:27:59;;;;;;;3.80;1.60;;;33.50;30.00;;;;;;5053582;28;20036;-69
2021/09/15 10:30:51;;;;;;;4.75;1.60;;;33.70;30.00;;;;;;5052606;28;20021;-70
2021/09/15 10:33:35;;;;;;;4.55;1.60;;;33.50;29.80;;;;;;5052490;28;20028;-70
2021/09/15 10:36:10;;;;;;;5.10;1.50;;;33.30;29.80;;;;;;5054022;28;20103;-70
2021/09/15 10:38:58;;;;;;;3.15;1.42;;;33.40;30.00;;;;;;5054036;28;20460;-70
2021/09/15 10:41:42;;;;;;;8.95;1.77;;;33.40;29.60;;;;;;5052492;28;20029;-69
2021/09/15 10:44:13;;;;;;;5.25;1.30;;;33.30;29.70;;;;;;5052088;28;20037;-70
2021/09/15 10:46:41;;;;;;;9.20;1.70;;;33.20;29.30;;;;;;5052804;28;20464;-70
2021/09/15 10:49:22;;;;;;;10.15;1.70;;;33.00;29.20;;;;;;5052615;28;20025;-69
2021/09/15 10:52:08;;;;;;;4.05;1.40;;;33.00;28.90;;;;;;5053456;28;20025;-70
2021/09/15 10:54:49;;;;;;;4.45;1.50;;;32.80;29.40;;;;;;5053379;28;20031;-70
2021/09/15 10:57:37;;;;;;;5.70;1.63;;;32.80;29.30;;;;;;5052145;28;20383;-70
2021/09/15 11:00:02;;;;;;;2.63;1.33;;;32.80;29.60;;;;;;5052004;28;20021;-69
2021/09/15 11:02:31;;;;;;;6.03;1.67;;;33.20;29.60;;;;;;5053585;28;20460;-69
2021/09/15 11:05:19;;;;;;;6.57;1.52;;;33.20;29.50;;;;;;5051945;28;20076;-70
2021/09/15 11:07:48;;;;;;;3.72;1.60;;;32.80;29.50;;;;;;5053149;28;20464;-69
2021/09/15 11:10:35;;;;;;;5.15;1.88;;;32.60;30.00;;;;;;5051981;28;20057;-69
2021/09/15 11:13:14;;;;;;;3.53;1.42;;;32.40;29.90;;;;;;5053372;28;20104;-70
2021/09/15 11:15:45;;;;;;;4.50;1.73;;;32.50;30.00;;;;;;5056616;28;20030;-69
2021/09/15 11:18:22;;;;;;;2.53;1.27;;;32.60;30.00;;;;;;5056483;28;20052;-69
2021/09/15 11:20:58;;;;;;;4.85;1.40;;;32.50;29.70;;;;;;5056487;28;20028;-69
2021/09/15 11:23:28;;;;;;;3.83;1.45;;;32.60;29.30;;;;;;5056207;28;20029;-69
2021/09/15 11:25:55;;;;;;;3.40;1.60;;;32.50;29.20;;;;;;5055628;28;20124;-69
2021/09/15 11:28:25;;;;;;;5.18;1.30;;;32.30;29.30;;;;;;5057455;28;20036;-69
2021/09/15 11:30:50;;;;;;;3.53;1.27;;;32.10;29.50;;;;;;5057126;28;20033;-71
2021/09/15 11:33:23;;;;;;;4.20;1.40;;;32.20;29.50;;;;;;5056131;28;20536;-69
2021/09/15 11:35:56;;;;;;;7.05;1.73;;;32.30;29.60;;;;;;5056788;28;20041;-70
2021/09/15 11:38:25;;;;;;;4.82;1.70;;;32.60;29.90;;;;;;5056787;28;20021;-69
2021/09/15 11:40:51;;;;;;;5.47;1.50;;;32.50;29.60;;;;;;5057016;28;20048;-68
2021/09/15 11:43:20;;;;;;;9.50;1.80;;;32.20;29.20;;;;;;5057066;28;20459;-69
2021/09/15 11:45:47;;;;;;;3.70;1.70;;;31.90;29.50;;;;;;5057032;28;20115;-69
2021/09/15 11:48:24;;;;;;;5.10;1.70;;;31.80;29.70;;;;;;5057353;28;20036;-69
2021/09/15 11:50:49;;;;;;;4.28;1.95;;;31.60;30.00;;;;;;5056622;28;20029;-70
2021/09/15 11:53:16;;;;;;;5.40;1.67;;;31.30;30.00;;;;;;5056721;28;20028;-69
2021/09/15 11:55:47;;;;;;;3.75;1.67;;;31.20;30.40;;;;;;5055471;28;20036;-69
2021/09/15 11:58:13;;;;;;;5.07;1.50;;;31.00;30.60;;;;;;5055672;28;20439;-69
2021/09/15 12:00:41;;;;;;;7.78;2.20;;;30.60;30.50;;;;;;5056524;28;20112;-69
2021/09/15 12:03:09;;;;;;;3.72;1.40;;;30.20;30.60;;;;;;5056341;28;20037;-69
2021/09/15 12:05:36;;;;;;;6.03;1.83;;;30.00;30.00;;;;;;5056462;28;20061;-69
2021/09/15 12:08:05;;;;;;;2.80;1.52;;;29.70;30.50;;;;;;5055203;28;20036;-69
2021/09/15 12:10:31;;;;;;;6.03;1.88;;;29.40;30.00;;;;;;5055019;28;20048;-68
2021/09/15 12:12:58;;;;;;;4.07;1.60;;;29.20;30.30;;;;;;5056090;28;20029;-69
2021/09/15 12:15:24;;;;;;;3.58;1.65;;;28.60;30.10;;;;;;5054974;28;20031;-69
2021/09/15 12:17:58;;;;;;;6.00;1.98;;;28.10;30.50;;;;;;5054917;28;20387;-70
2021/09/15 12:20:47;;;;;;;3.92;1.73;;;27.60;31.00;;;;;;5056280;28;20115;-68
2021/09/15 12:23:14;;;;;;;3.47;1.52;;;27.20;31.40;;;;;;5055157;28;20029;-68
2021/09/15 12:25:53;;;;;;;4.40;1.80;;;26.90;31.40;;;;;;5055530;28;20033;-68
2021/09/15 12:28:32;;;;;;;4.18;1.92;;;26.50;31.90;;;;;;5056015;28;20029;-70
2021/09/15 12:31:00;;;;;;;4.65;1.60;;;26.20;32.50;;;;;;5056092;28;20021;-69
2021/09/15 12:33:41;;;;;;;7.35;2.30;;;25.80;32.70;;;;;;5054606;28;20025;-69
2021/09/15 12:36:10;;;;;;;5.65;2.10;;;25.50;34.00;;;;;;5054734;28;20383;-69
2021/09/15 12:38:57;;;;;;;3.92;1.88;;;25.40;34.60;;;;;;5054309;28;20379;-69
2021/09/15 12:41:28;;;;;;;5.47;2.25;;;25.30;34.30;;;;;;5056434;28;20032;-69
2021/09/15 12:44:11;;;;;;;4.40;1.90;;;25.10;34.20;;;;;;5055463;28;20094;-68
2021/09/15 12:46:46;;;;;;;5.70;2.20;;;25.00;34.80;;;;;;5055552;28;20465;-68
2021/09/15 12:49:11;;;;;;;6.63;2.22;;;24.90;34.80;;;;;;5054538;28;20028;-69
2021/09/15 12:51:38;;;;;;;5.45;2.08;;;24.80;35.00;;;;;;5055482;28;20025;-68
2021/09/15 12:54:05;;;;;;;7.80;2.15;;;24.60;35.00;;;;;;5055490;28;20040;-69
2021/09/15 12:56:36;;;;;;;3.35;1.77;;;24.50;35.30;;;;;;5055832;28;20033;-69